createdAt,value
2023-04-16T00:02:07.678Z,35.22
2023-04-16T00:04:34.804Z,48.67
2023-04-16T00:07:01.707Z,48.70
2023-04-16T00:09:28.590Z,48.65
2023-04-16T00:11:55.837Z,47.55
2023-04-16T00:14:22.743Z,42.08
2023-04-16T00:16:49.707Z,45.45
2023-04-16T00:19:16.570Z,48.13
2023-04-16T00:21:44.673Z,44.75
2023-04-16T00:24:11.479Z,31.42
2023-04-16T00:26:38.299Z,36.85
2023-04-16T00:29:05.129Z,43.65
2023-04-16T00:31:33.833Z,49.97
2023-04-16T00:34:01.006Z,48.83
2023-04-16T00:36:28.519Z,44.83
2023-04-16T00:38:56.487Z,41.03
2023-04-16T00:41:23.974Z,42.53
2023-04-16T00:43:51.526Z,41.72
2023-04-16T00:46:19.856Z,52.38
2023-04-16T00:48:47.079Z,51.33
2023-04-16T00:51:13.973Z,48.80
2023-04-16T00:53:41.175Z,52.95
2023-04-16T00:56:08.496Z,50.15
2023-04-16T00:58:35.747Z,49.28
2023-04-16T01:01:02.748Z,38.05
2023-04-16T01:03:49.019Z,43.40
2023-04-16T01:06:17.829Z,55.38
2023-04-16T01:08:45.521Z,42.75
2023-04-16T01:11:12.580Z,41.85
2023-04-16T01:13:39.720Z,48.55
2023-04-16T01:16:08.266Z,44.78
2023-04-16T01:18:35.773Z,42.60
2023-04-16T01:21:03.920Z,49.42
2023-04-16T01:23:31.277Z,47.83
2023-04-16T01:25:58.097Z,47.35
2023-04-16T01:28:25.045Z,45.08
2023-04-16T01:30:51.939Z,42.72
2023-04-16T01:33:19.497Z,33.95
2023-04-16T01:35:46.358Z,48.05
2023-04-16T01:38:13.228Z,38.60
2023-04-16T01:40:40.193Z,52.63
2023-04-16T01:43:06.985Z,50.08
2023-04-16T01:45:35.265Z,39.60
2023-04-16T01:48:03.127Z,40.78
2023-04-16T01:50:30.857Z,41.97
2023-04-16T01:52:57.736Z,33.53
2023-04-16T01:55:24.732Z,42.15
2023-04-16T01:57:51.544Z,41.72
2023-04-16T02:00:18.484Z,40.80
2023-04-16T02:02:45.883Z,39.78
2023-04-16T02:05:12.802Z,39.50
2023-04-16T02:07:39.607Z,48.63
2023-04-16T02:10:08.109Z,35.63
2023-04-16T02:12:34.893Z,28.35
2023-04-16T02:15:02.611Z,40.88
2023-04-16T02:17:29.507Z,39.72
2023-04-16T02:19:56.313Z,39.25
2023-04-16T02:22:23.472Z,37.20
2023-04-16T02:24:51.284Z,40.67
2023-04-16T02:27:18.060Z,40.28
2023-04-16T02:29:44.956Z,38.05
2023-04-16T02:32:12.008Z,43.13
2023-04-16T02:34:40.293Z,36.38
2023-04-16T02:37:07.215Z,39.83
2023-04-16T02:39:34.070Z,39.50
2023-04-16T02:42:02.886Z,45.42
2023-04-16T02:44:29.776Z,46.65
2023-04-16T02:46:56.625Z,38.95
2023-04-16T02:49:23.413Z,40.15
2023-04-16T02:51:50.296Z,42.65
2023-04-16T02:54:17.127Z,48.63
2023-04-16T02:56:43.957Z,53.90
2023-04-16T02:59:13.645Z,38.70
2023-04-16T03:01:40.550Z,40.35
2023-04-16T03:04:07.503Z,42.65
2023-04-16T03:06:34.361Z,47.40
2023-04-16T03:09:01.221Z,47.28
2023-04-16T03:11:28.044Z,41.75
2023-04-16T03:13:54.930Z,44.25
2023-04-16T03:16:21.871Z,40.45
2023-04-16T03:18:48.814Z,38.20
2023-04-16T03:21:15.763Z,40.85
2023-04-16T03:23:42.677Z,49.95
2023-04-16T03:26:09.502Z,45.05
2023-04-16T03:28:37.499Z,45.97
2023-04-16T03:31:04.600Z,38.00
2023-04-16T03:33:31.538Z,40.22
2023-04-16T03:35:58.528Z,40.92
2023-04-16T03:38:26.660Z,39.63
2023-04-16T03:40:53.597Z,40.47
2023-04-16T03:43:20.650Z,43.38
2023-04-16T03:45:47.556Z,36.80
2023-04-16T03:48:14.430Z,44.80
2023-04-16T03:50:46.060Z,43.50
2023-04-16T03:53:12.851Z,42.72
2023-04-16T03:55:39.861Z,39.40
2023-04-16T03:58:06.693Z,41.33
2023-04-16T04:00:34.342Z,35.63
2023-04-16T04:03:01.250Z,34.38
2023-04-16T04:05:28.206Z,33.00
2023-04-16T04:07:55.047Z,38.85
2023-04-16T04:10:21.852Z,41.83
2023-04-16T04:12:48.672Z,45.28
2023-04-16T04:15:15.863Z,42.60
2023-04-16T04:17:42.717Z,46.75
2023-04-16T04:20:10.132Z,49.83
2023-04-16T04:22:37.205Z,37.45
2023-04-16T04:25:04.237Z,43.50
2023-04-16T04:27:31.033Z,34.90
2023-04-16T04:29:58.305Z,40.63
2023-04-16T04:32:25.213Z,41.75
2023-04-16T04:34:52.103Z,39.78
2023-04-16T04:37:18.947Z,39.05
2023-04-16T04:39:45.730Z,40.92
2023-04-16T04:42:12.606Z,36.80
2023-04-16T04:44:39.528Z,39.22
2023-04-16T04:47:06.439Z,45.15
2023-04-16T04:49:33.253Z,41.10
2023-04-16T04:52:00.096Z,41.13
2023-04-16T04:54:27.034Z,42.55
2023-04-16T04:56:53.814Z,42.28
2023-04-16T04:59:21.453Z,45.20
2023-04-16T05:01:48.521Z,36.42
2023-04-16T05:04:15.729Z,39.55
2023-04-16T05:06:43.000Z,37.65
2023-04-16T05:09:11.721Z,40.13
2023-04-16T05:11:39.417Z,45.42
2023-04-16T05:14:06.211Z,38.03
2023-04-16T05:16:33.267Z,36.85
2023-04-16T05:19:00.064Z,41.33
2023-04-16T05:21:27.042Z,35.25
2023-04-16T05:23:54.145Z,41.50
2023-04-16T05:26:21.246Z,42.95
2023-04-16T05:28:48.023Z,43.00
2023-04-16T05:31:14.970Z,38.30
2023-04-16T05:33:42.133Z,31.17
2023-04-16T05:36:09.026Z,35.00
2023-04-16T05:38:35.869Z,34.15
2023-04-16T05:41:02.671Z,43.47
2023-04-16T05:43:29.464Z,28.25
2023-04-16T05:45:56.306Z,30.77
2023-04-16T05:48:23.149Z,49.40
2023-04-16T05:50:50.401Z,41.85
2023-04-16T05:53:19.010Z,31.23
2023-04-16T05:55:46.830Z,40.58
2023-04-16T05:58:13.641Z,34.92
2023-04-16T06:00:40.951Z,31.15
2023-04-16T06:03:07.918Z,42.17
2023-04-16T06:05:35.314Z,31.33
2023-04-16T06:08:02.408Z,29.40
2023-04-16T06:10:29.413Z,38.15
2023-04-16T06:12:56.271Z,49.90
2023-04-16T06:15:23.205Z,38.85
2023-04-16T06:17:51.166Z,36.15
2023-04-16T06:20:18.081Z,37.75
2023-04-16T06:22:44.941Z,34.92
2023-04-16T06:25:11.934Z,40.85
2023-04-16T06:27:38.887Z,37.65
2023-04-16T06:30:12.633Z,33.38
2023-04-16T06:32:39.662Z,40.40
2023-04-16T06:35:07.010Z,33.47
2023-04-16T06:37:33.834Z,34.97
2023-04-16T06:40:00.615Z,36.78
2023-04-16T06:42:27.896Z,31.63
2023-04-16T06:44:54.690Z,29.15
2023-04-16T06:47:21.509Z,30.02
2023-04-16T06:49:48.334Z,36.22
2023-04-16T06:52:15.376Z,32.20
2023-04-16T06:54:42.265Z,30.67
2023-04-16T06:57:09.250Z,27.90
2023-04-16T06:59:36.053Z,26.85
2023-04-16T07:02:03.007Z,27.48
2023-04-16T07:04:29.936Z,38.38
2023-04-16T07:06:56.794Z,32.97
2023-04-16T07:09:23.656Z,35.17
2023-04-16T07:11:50.712Z,32.60
2023-04-16T07:14:17.605Z,28.30
2023-04-16T07:16:44.481Z,28.25
2023-04-16T07:19:11.601Z,39.00
2023-04-16T07:21:39.456Z,25.98
2023-04-16T07:24:06.348Z,27.83
2023-04-16T07:26:33.238Z,24.23
2023-04-16T07:29:00.081Z,22.38
2023-04-16T07:31:27.523Z,25.52
2023-04-16T07:33:54.399Z,30.75
2023-04-16T07:36:21.289Z,28.35
2023-04-16T07:38:48.270Z,25.15
2023-04-16T07:41:15.313Z,25.83
2023-04-16T07:43:42.478Z,29.08
2023-04-16T07:46:09.295Z,27.90
2023-04-16T07:48:36.147Z,26.65
2023-04-16T07:51:02.976Z,37.22
2023-04-16T07:53:29.846Z,26.50
2023-04-16T07:55:56.809Z,26.40
2023-04-16T07:58:23.657Z,31.30
2023-04-16T08:00:51.380Z,25.85
2023-04-16T08:03:18.637Z,27.30
2023-04-16T08:05:45.700Z,28.58
2023-04-16T08:08:12.523Z,27.40
2023-04-16T08:10:39.910Z,23.58
2023-04-16T08:13:06.805Z,26.52
2023-04-16T08:15:33.732Z,24.75
2023-04-16T08:18:00.768Z,23.80
2023-04-16T08:20:29.112Z,21.38
2023-04-16T08:22:55.951Z,22.67
2023-04-16T08:25:24.718Z,23.00
2023-04-16T08:27:51.548Z,24.67
2023-04-16T08:30:18.461Z,24.83
2023-04-16T08:32:46.879Z,29.52
2023-04-16T08:35:15.812Z,21.95
2023-04-16T08:37:42.586Z,25.52
2023-04-16T08:40:09.711Z,24.13
2023-04-16T08:42:49.678Z,19.70
2023-04-16T08:45:19.828Z,22.88
2023-04-16T08:47:49.162Z,20.75
2023-04-16T08:50:17.362Z,21.17
2023-04-16T08:52:52.643Z,29.05
2023-04-16T08:55:31.039Z,22.15
2023-04-16T08:58:04.099Z,15.82
2023-04-16T09:00:33.111Z,17.77
2023-04-16T09:03:00.691Z,22.67
2023-04-16T09:05:29.252Z,19.30
2023-04-16T09:07:56.100Z,22.42
2023-04-16T09:10:23.960Z,13.40
2023-04-16T09:12:51.218Z,15.13
2023-04-16T09:15:21.290Z,16.55
2023-04-16T09:17:48.266Z,12.45
2023-04-16T09:20:15.591Z,15.93
2023-04-16T09:22:44.174Z,17.52
2023-04-16T09:25:11.746Z,15.27
2023-04-16T09:27:39.068Z,15.05
2023-04-16T09:30:22.718Z,16.65
2023-04-16T09:33:10.083Z,14.43
2023-04-16T09:35:48.910Z,15.95
2023-04-16T09:38:16.569Z,17.42
2023-04-16T09:40:44.189Z,16.50
2023-04-16T09:43:18.606Z,22.52
2023-04-16T09:45:52.976Z,18.58
2023-04-16T09:50:58.009Z,15.77
2023-04-16T09:53:32.422Z,12.43
2023-04-16T09:56:06.879Z,12.10
2023-04-16T10:01:06.879Z,15.35
2023-04-16T10:03:35.692Z,20.80
2023-04-16T10:06:14.077Z,16.50
2023-04-16T10:08:50.292Z,14.20
2023-04-16T10:11:21.605Z,16.38
2023-04-16T10:13:48.624Z,14.35
2023-04-16T10:16:15.968Z,11.20
2023-04-16T10:18:45.062Z,13.15
2023-04-16T10:21:12.883Z,14.65
2023-04-16T10:23:40.410Z,11.73
2023-04-16T10:26:07.351Z,23.80
2023-04-16T10:28:35.829Z,15.48
2023-04-16T10:31:07.297Z,21.20
2023-04-16T10:33:36.699Z,14.45
2023-04-16T10:36:12.851Z,17.40
2023-04-16T10:38:49.383Z,20.58
2023-04-16T10:41:17.032Z,16.08
2023-04-16T10:43:45.591Z,16.05
2023-04-16T10:46:18.791Z,15.18
2023-04-16T10:48:50.446Z,13.02
2023-04-16T10:51:32.254Z,13.88
2023-04-16T10:54:04.802Z,17.05
2023-04-16T10:56:36.045Z,13.65
2023-04-16T10:59:06.995Z,16.20
2023-04-16T11:01:41.042Z,15.15
2023-04-16T11:04:20.531Z,17.25
2023-04-16T11:07:03.853Z,13.98
2023-04-16T11:10:03.288Z,12.43
2023-04-16T11:12:30.153Z,15.35
2023-04-16T11:15:13.827Z,16.92
2023-04-16T11:17:47.625Z,14.07
2023-04-16T11:20:20.945Z,12.07
2023-04-16T11:22:49.123Z,14.63
2023-04-16T11:25:30.794Z,13.13
2023-04-16T11:27:59.151Z,18.13
2023-04-16T11:30:31.016Z,11.25
2023-04-16T11:32:57.921Z,12.48
2023-04-16T11:35:24.869Z,10.70
2023-04-16T11:37:57.022Z,14.48
2023-04-16T11:40:24.366Z,13.80
2023-04-16T11:42:51.231Z,11.70
2023-04-16T11:45:20.890Z,17.13
2023-04-16T11:47:52.048Z,14.90
2023-04-16T11:50:27.785Z,13.48
2023-04-16T11:53:06.324Z,14.82
2023-04-16T11:55:44.303Z,10.75
2023-04-16T11:58:16.426Z,11.68
2023-04-16T12:00:45.109Z,12.65
2023-04-16T12:03:12.221Z,12.07
2023-04-16T12:05:40.755Z,10.93
2023-04-16T12:08:09.618Z,11.90
2023-04-16T12:10:56.099Z,10.88
2023-04-16T12:13:22.994Z,13.52
2023-04-16T12:15:55.246Z,12.50
2023-04-16T12:18:24.305Z,12.40
2023-04-16T12:20:51.350Z,17.20
2023-04-16T12:23:33.313Z,15.07
2023-04-16T12:26:10.591Z,11.80
2023-04-16T12:28:38.651Z,12.45
2023-04-16T12:31:07.566Z,13.02
2023-04-16T12:33:34.545Z,13.18
2023-04-16T12:36:03.529Z,10.07
2023-04-16T12:38:30.614Z,14.05
2023-04-16T12:40:58.291Z,14.55
2023-04-16T12:43:25.721Z,12.82
2023-04-16T12:45:52.755Z,11.00
2023-04-16T12:48:19.659Z,13.77
2023-04-16T12:50:46.901Z,12.00
2023-04-16T12:53:13.910Z,13.13
2023-04-16T12:55:40.838Z,11.05
2023-04-16T12:58:09.401Z,13.40
2023-04-16T13:00:37.984Z,12.95
2023-04-16T13:03:04.996Z,11.48
2023-04-16T13:05:31.900Z,12.18
2023-04-16T13:07:58.864Z,12.93
2023-04-16T13:10:27.777Z,13.13
2023-04-16T13:12:54.574Z,11.98
2023-04-16T13:15:21.810Z,16.75
2023-04-16T13:17:48.713Z,15.23
2023-04-16T13:20:15.752Z,13.82
2023-04-16T13:22:42.603Z,13.32
2023-04-16T13:25:10.229Z,16.92
2023-04-16T13:27:37.182Z,9.52
2023-04-16T13:30:04.290Z,11.25
2023-04-16T13:32:31.293Z,14.02
2023-04-16T13:34:59.355Z,16.25
2023-04-16T13:37:26.205Z,9.80
2023-04-16T13:39:54.339Z,8.95
2023-04-16T13:42:22.281Z,17.95
2023-04-16T13:44:52.975Z,12.23
2023-04-16T13:47:19.804Z,20.60
2023-04-16T13:49:47.609Z,11.05
2023-04-16T13:52:14.497Z,8.88
2023-04-16T13:54:41.614Z,8.63
2023-04-16T13:57:08.524Z,10.10
2023-04-16T13:59:35.482Z,14.50
2023-04-16T14:02:02.711Z,16.30
2023-04-16T14:04:29.694Z,12.98
2023-04-16T14:06:56.786Z,10.90
2023-04-16T14:09:23.582Z,11.93
2023-04-16T14:11:51.468Z,16.00
2023-04-16T14:14:18.450Z,17.88
2023-04-16T14:16:45.632Z,10.73
2023-04-16T14:19:13.116Z,17.90
2023-04-16T14:21:40.102Z,18.73
2023-04-16T14:24:09.188Z,15.30
2023-04-16T14:26:36.158Z,16.52
2023-04-16T14:29:03.015Z,12.90
2023-04-16T14:31:30.695Z,17.30
2023-04-16T14:33:57.784Z,11.45
2023-04-16T14:36:24.590Z,13.93
2023-04-16T14:38:51.534Z,18.23
2023-04-16T14:41:18.430Z,14.38
2023-04-16T14:43:45.402Z,16.70
2023-04-16T14:46:12.536Z,18.42
2023-04-16T14:48:39.510Z,15.95
2023-04-16T14:51:07.353Z,22.70
2023-04-16T14:53:36.164Z,20.65
2023-04-16T14:56:03.462Z,17.05
2023-04-16T14:58:30.395Z,22.45
2023-04-16T15:00:58.717Z,15.93
2023-04-16T15:03:25.798Z,15.88
2023-04-16T15:05:55.958Z,19.27
2023-04-16T15:08:23.734Z,16.40
2023-04-16T15:10:51.247Z,29.33
2023-04-16T15:13:18.414Z,15.10
2023-04-16T15:15:45.552Z,18.48
2023-04-16T15:18:12.454Z,16.33
2023-04-16T15:20:39.353Z,15.05
2023-04-16T15:23:06.161Z,12.50
2023-04-16T15:25:33.322Z,16.23
2023-04-16T15:28:00.222Z,15.35
2023-04-16T15:30:27.073Z,15.80
2023-04-16T15:32:55.118Z,20.55
2023-04-16T15:35:22.065Z,13.95
2023-04-16T15:37:48.961Z,13.07
2023-04-16T15:40:18.718Z,16.60
2023-04-16T15:42:48.042Z,17.23
2023-04-16T15:45:14.835Z,20.83
2023-04-16T15:47:42.365Z,13.18
2023-04-16T15:50:09.876Z,12.27
2023-04-16T15:52:39.424Z,14.52
2023-04-16T15:55:07.903Z,17.38
2023-04-16T15:57:34.699Z,22.10
2023-04-16T16:00:06.544Z,19.27
2023-04-16T16:02:34.530Z,15.40
2023-04-16T16:05:01.669Z,17.23
2023-04-16T16:07:28.593Z,13.63
2023-04-16T16:09:56.720Z,15.90
2023-04-16T16:12:23.717Z,19.25
2023-04-16T16:14:51.215Z,13.85
2023-04-16T16:17:20.384Z,12.35
2023-04-16T16:19:47.742Z,12.73
2023-04-16T16:22:15.993Z,16.58
2023-04-16T16:24:45.812Z,17.45
2023-04-16T16:27:12.670Z,17.02
2023-04-16T16:29:39.497Z,14.13
2023-04-16T16:32:06.550Z,15.35
2023-04-16T16:34:33.514Z,17.20
2023-04-16T16:37:00.812Z,17.77
2023-04-16T16:39:32.912Z,13.45
2023-04-16T16:42:00.025Z,11.75
2023-04-16T16:44:27.181Z,21.77
2023-04-16T16:46:54.280Z,19.77
2023-04-16T16:49:21.107Z,19.13
2023-04-16T16:51:48.639Z,14.40
2023-04-16T16:54:17.838Z,10.65
2023-04-16T16:56:44.683Z,13.73
2023-04-16T16:59:11.732Z,16.75
2023-04-16T17:01:38.866Z,14.55
2023-04-16T17:04:05.938Z,16.20
2023-04-16T17:06:33.426Z,15.38
2023-04-16T17:09:00.924Z,13.32
2023-04-16T17:11:29.291Z,15.45
2023-04-16T17:13:59.256Z,16.70
2023-04-16T17:16:26.143Z,13.63
2023-04-16T17:18:53.013Z,23.48
2023-04-16T17:21:19.918Z,18.55
2023-04-16T17:23:46.752Z,18.10
2023-04-16T17:26:13.899Z,19.42
2023-04-16T17:28:40.831Z,13.80
2023-04-16T17:31:11.408Z,23.23
2023-04-16T17:33:38.248Z,15.70
2023-04-16T17:36:05.628Z,18.17
2023-04-16T17:38:33.728Z,19.42
2023-04-16T17:41:03.005Z,15.85
2023-04-16T17:43:29.918Z,20.77
2023-04-16T17:45:56.769Z,14.95
2023-04-16T17:48:23.613Z,16.95
2023-04-16T17:50:50.647Z,18.45
2023-04-16T17:53:17.528Z,14.68
2023-04-16T17:55:56.126Z,14.65
2023-04-16T17:58:23.858Z,16.67
2023-04-16T18:00:52.790Z,13.48
2023-04-16T18:03:22.374Z,17.85
2023-04-16T18:05:49.375Z,19.98
2023-04-16T18:08:16.540Z,12.35
2023-04-16T18:10:43.436Z,21.45
2023-04-16T18:13:10.690Z,22.27
2023-04-16T18:15:38.340Z,18.73
2023-04-16T18:18:06.004Z,22.08
2023-04-16T18:20:32.964Z,16.38
2023-04-16T18:23:00.252Z,19.55
2023-04-16T18:25:34.625Z,23.30
2023-04-16T18:28:03.839Z,23.45
2023-04-16T18:30:31.355Z,17.02
2023-04-16T18:35:28.606Z,21.10
2023-04-16T18:37:55.472Z,22.30
2023-04-16T18:40:22.367Z,24.33
2023-04-16T18:42:49.234Z,17.10
2023-04-16T18:45:21.575Z,17.92
2023-04-16T18:47:50.500Z,22.77
2023-04-16T18:50:17.632Z,24.38
2023-04-16T18:52:44.504Z,22.13
2023-04-16T18:55:11.305Z,24.77
2023-04-16T18:57:38.550Z,22.55
2023-04-16T19:00:13.827Z,26.02
2023-04-16T19:02:41.043Z,22.10
2023-04-16T19:05:11.904Z,23.63
2023-04-16T19:07:41.782Z,28.73
2023-04-16T19:10:11.679Z,26.65
2023-04-16T19:12:38.565Z,28.67
2023-04-16T19:15:05.886Z,23.25
2023-04-16T19:17:33.275Z,24.77
2023-04-16T19:20:00.390Z,33.97
2023-04-16T19:22:27.303Z,24.98
2023-04-16T19:24:56.381Z,29.33
2023-04-16T19:27:23.369Z,25.65
2023-04-16T19:29:50.277Z,26.35
2023-04-16T19:32:27.353Z,22.40
2023-04-16T19:34:56.697Z,32.72
2023-04-16T19:37:28.934Z,23.58
2023-04-16T19:39:56.116Z,24.45
2023-04-16T19:42:23.004Z,28.23
2023-04-16T19:45:03.425Z,34.15
2023-04-16T19:47:43.208Z,27.15
2023-04-16T20:05:28.705Z,28.42
2023-04-16T20:46:49.849Z,27.40
2023-04-16T20:49:18.611Z,27.23
2023-04-16T20:51:45.624Z,25.60
2023-04-16T20:54:12.665Z,24.77
2023-04-16T20:56:39.498Z,27.42
2023-04-16T20:59:06.582Z,25.00
2023-04-16T21:01:33.647Z,28.92
2023-04-16T21:04:01.536Z,20.85
2023-04-16T21:06:32.737Z,21.00
2023-04-16T21:08:59.687Z,27.63
2023-04-16T21:11:27.179Z,26.80
2023-04-16T21:13:53.986Z,23.15
2023-04-16T21:16:20.947Z,28.58
2023-04-16T21:18:47.812Z,25.45
2023-04-16T21:21:14.687Z,30.10
2023-04-16T21:23:41.487Z,26.15
2023-04-16T21:26:08.317Z,27.15
2023-04-16T21:28:38.320Z,25.75
2023-04-16T21:31:05.250Z,21.25
2023-04-16T21:33:32.283Z,30.50
2023-04-16T21:35:59.072Z,30.65
2023-04-16T21:38:25.944Z,32.05
2023-04-16T21:40:55.723Z,23.75
2023-04-16T21:43:23.441Z,22.92
2023-04-16T21:45:53.664Z,21.20
2023-04-16T21:48:21.496Z,20.70
2023-04-16T21:50:54.344Z,21.65
2023-04-16T21:53:21.140Z,33.88
2023-04-16T21:55:48.069Z,21.58
2023-04-16T21:58:14.875Z,24.25
2023-04-16T22:00:41.676Z,24.77
2023-04-16T22:03:12.442Z,24.85
2023-04-16T22:05:39.575Z,28.13
2023-04-16T22:08:23.504Z,23.27
2023-04-16T22:10:51.648Z,26.48
2023-04-16T22:13:18.639Z,30.23
2023-04-16T22:15:45.505Z,24.13
2023-04-16T22:18:12.332Z,25.83
2023-04-16T22:20:39.799Z,37.58
2023-04-16T22:23:06.982Z,29.52
2023-04-16T22:25:33.849Z,33.05
2023-04-16T22:28:01.650Z,31.95
2023-04-16T22:30:28.629Z,34.58
2023-04-16T22:32:55.574Z,38.45
2023-04-16T22:35:22.413Z,41.88
2023-04-16T22:37:49.251Z,45.42
2023-04-16T22:40:16.678Z,40.78
2023-04-16T22:42:43.604Z,38.92
2023-04-16T22:45:11.293Z,37.90
2023-04-16T22:47:38.238Z,41.75
2023-04-16T22:50:06.259Z,37.83
2023-04-16T22:52:33.128Z,44.15
2023-04-16T22:54:59.951Z,39.70
2023-04-16T22:57:26.737Z,41.08
2023-04-16T22:59:53.782Z,41.38
2023-04-16T23:02:21.438Z,45.38
2023-04-16T23:04:48.425Z,39.05
2023-04-16T23:07:16.268Z,48.25
2023-04-16T23:09:43.184Z,41.42
2023-04-16T23:12:09.997Z,47.38
2023-04-16T23:14:37.025Z,41.38
2023-04-16T23:17:03.985Z,43.63
2023-04-16T23:19:31.745Z,39.50
2023-04-16T23:21:58.868Z,46.10
2023-04-16T23:24:25.726Z,48.95
2023-04-16T23:26:55.105Z,47.63
2023-04-16T23:29:22.055Z,43.10
2023-04-16T23:31:48.966Z,44.38
2023-04-16T23:34:15.823Z,39.28
2023-04-16T23:36:42.729Z,43.03
2023-04-16T23:39:09.895Z,44.03
2023-04-16T23:41:37.896Z,43.70
2023-04-16T23:44:04.857Z,39.22
2023-04-16T23:46:31.977Z,40.42
2023-04-16T23:48:58.785Z,46.80
2023-04-16T23:51:26.616Z,46.33
2023-04-16T23:53:53.460Z,41.67
2023-04-16T23:56:20.286Z,39.88
2023-04-16T23:58:47.116Z,44.38
